createdAt,value
2023-01-22T06:17:03.729Z,-0.35
2023-01-22T06:19:39.056Z,-0.35
2023-01-22T06:22:06.112Z,-0.45
2023-01-22T06:24:45.236Z,-0.38
2023-01-22T06:27:13.117Z,-0.39
2023-01-22T06:29:49.380Z,-0.36
2023-01-22T06:32:16.422Z,-0.26
2023-01-22T06:34:44.192Z,-0.18
2023-01-22T06:37:11.051Z,-0.08
2023-01-22T06:39:38.502Z,-0.04
2023-01-22T06:42:32.469Z,-0.07
2023-01-22T06:44:59.727Z,-0.12
2023-01-22T06:47:28.315Z,-0.10
2023-01-22T06:49:55.372Z,-0.17
2023-01-22T06:52:22.113Z,-0.23
2023-01-22T06:54:48.888Z,-0.19
2023-01-22T06:57:15.808Z,-0.21
2023-01-22T06:59:42.555Z,-0.17
2023-01-22T07:02:15.234Z,-0.08
2023-01-22T07:04:42.003Z,-0.04
2023-01-22T07:07:08.932Z,-0.00
2023-01-22T07:09:37.114Z,0.05
2023-01-22T07:12:04.176Z,0.10
2023-01-22T07:14:36.720Z,0.08
2023-01-22T07:17:04.719Z,0.13
2023-01-22T07:19:32.179Z,0.18
2023-01-22T07:21:59.229Z,0.21
2023-01-22T07:24:26.487Z,0.21
2023-01-22T07:26:53.335Z,0.23
2023-01-22T07:29:20.066Z,0.29
2023-01-22T07:31:49.508Z,0.32
2023-01-22T07:34:16.651Z,0.35
2023-01-22T07:36:45.978Z,0.38
2023-01-22T07:39:13.308Z,0.37
2023-01-22T07:41:40.157Z,0.25
2023-01-22T07:44:11.402Z,0.29
2023-01-22T07:46:42.097Z,0.31
2023-01-22T07:49:10.319Z,0.36
2023-01-22T07:51:37.065Z,0.31
2023-01-22T07:54:04.018Z,0.30
2023-01-22T07:56:31.475Z,0.31
2023-01-22T07:59:01.599Z,0.39
2023-01-22T08:01:28.760Z,0.42
2023-01-22T08:03:56.787Z,0.41
2023-01-22T08:06:23.679Z,0.43
2023-01-22T08:08:50.527Z,0.44
2023-01-22T08:11:17.581Z,0.45
2023-01-22T08:13:44.949Z,0.47
2023-01-22T08:16:11.973Z,0.50
2023-01-22T08:18:38.942Z,0.53
2023-01-22T08:21:05.994Z,0.57
2023-01-22T08:23:33.170Z,0.60
2023-01-22T08:26:00.716Z,0.53
2023-01-22T08:28:27.569Z,0.52
2023-01-22T08:31:01.261Z,0.59
2023-01-22T08:33:28.831Z,0.58
2023-01-22T08:35:55.464Z,0.52
2023-01-22T08:38:22.330Z,0.47
2023-01-22T08:40:52.650Z,0.43
2023-01-22T08:43:19.475Z,0.40
2023-01-22T08:45:49.465Z,0.46
2023-01-22T08:48:16.991Z,0.48
2023-01-22T08:50:43.828Z,0.45
2023-01-22T08:53:10.677Z,0.45
2023-01-22T08:55:37.633Z,0.51
2023-01-22T08:58:04.476Z,0.54
2023-01-22T09:00:31.407Z,0.59
2023-01-22T09:02:59.609Z,0.55
2023-01-22T09:05:26.964Z,0.60
2023-01-22T09:07:53.835Z,0.62
2023-01-22T09:10:21.851Z,0.59
2023-01-22T09:12:49.156Z,0.62
2023-01-22T09:15:16.198Z,0.69
2023-01-22T09:17:43.053Z,0.76
2023-01-22T09:20:10.302Z,0.75
2023-01-22T09:22:37.460Z,0.75
2023-01-22T09:25:04.930Z,0.77
2023-01-22T09:27:31.904Z,0.78
2023-01-22T09:29:59.228Z,0.83
2023-01-22T09:32:29.867Z,0.74
2023-01-22T09:34:56.927Z,0.77
2023-01-22T09:37:24.791Z,0.85
2023-01-22T09:39:51.846Z,0.95
2023-01-22T09:42:39.878Z,0.99
2023-01-22T09:45:10.613Z,1.03
2023-01-22T09:47:46.926Z,1.05
2023-01-22T09:50:20.647Z,0.87
2023-01-22T09:52:49.473Z,0.78
2023-01-22T09:55:18.673Z,0.79
2023-01-22T09:57:47.570Z,0.68
2023-01-22T10:00:26.798Z,0.75
2023-01-22T10:03:00.199Z,0.75
2023-01-22T10:05:37.481Z,0.67
2023-01-22T10:08:16.304Z,0.72
2023-01-22T18:08:20.242Z,-0.82
2023-01-22T18:10:47.190Z,-0.82
2023-01-22T18:13:14.343Z,-0.82
2023-01-22T18:15:46.016Z,-0.84
2023-01-22T18:18:13.672Z,-0.82
2023-01-22T18:20:46.655Z,-0.79
2023-01-22T18:23:14.016Z,-0.76
2023-01-22T18:25:49.735Z,-0.74
2023-01-22T18:28:17.218Z,-0.69
2023-01-22T18:30:45.107Z,-0.66
2023-01-22T18:33:14.266Z,-0.66
2023-01-22T18:35:42.481Z,-0.67
2023-01-22T18:38:09.232Z,-0.71
2023-01-22T18:40:39.036Z,-0.69
2023-01-22T18:43:05.952Z,-0.70
2023-01-22T18:45:36.529Z,-0.68
2023-01-22T18:48:04.144Z,-0.66
2023-01-22T18:50:31.187Z,-0.65
2023-01-22T18:53:00.205Z,-0.63
2023-01-22T18:55:28.967Z,-0.61
2023-01-22T18:57:56.351Z,-0.63
2023-01-22T19:00:23.549Z,-0.66
2023-01-22T19:02:54.729Z,-0.67
2023-01-22T19:05:22.804Z,-0.67
2023-01-22T19:07:49.826Z,-0.69
2023-01-22T19:10:17.259Z,-0.71
2023-01-22T19:12:44.593Z,-0.72
2023-01-22T19:15:11.862Z,-0.72
2023-01-22T19:17:39.161Z,-0.71
2023-01-22T19:20:07.974Z,-0.72
2023-01-22T19:22:35.076Z,-0.75
2023-01-22T19:25:02.367Z,-0.77
2023-01-22T19:27:29.629Z,-0.74
2023-01-22T19:29:56.574Z,-0.71
2023-01-22T19:32:28.129Z,-0.66
2023-01-22T19:34:55.311Z,-0.65
2023-01-22T19:37:23.799Z,-0.64
2023-01-22T19:39:51.030Z,-0.64
2023-01-22T19:42:18.901Z,-0.66
2023-01-22T19:44:47.999Z,-0.70
2023-01-22T19:47:14.835Z,-0.71
2023-01-22T19:49:41.752Z,-0.71
2023-01-22T19:52:10.133Z,-0.69
2023-01-22T19:54:42.314Z,-0.70
2023-01-22T19:57:10.651Z,-0.72
2023-01-22T19:59:41.877Z,-0.74
2023-01-22T20:02:13.432Z,-0.78
2023-01-22T20:04:40.641Z,-0.80
2023-01-22T20:07:11.121Z,-0.79
2023-01-22T20:09:38.481Z,-0.79
2023-01-22T20:12:06.265Z,-0.80
2023-01-22T20:14:38.388Z,-0.78
2023-01-22T20:17:05.423Z,-0.77
2023-01-22T20:19:32.881Z,-0.76
2023-01-22T20:22:02.344Z,-0.77
2023-01-22T20:24:29.599Z,-0.78
2023-01-22T20:26:58.185Z,-0.75
2023-01-22T20:29:25.145Z,-0.72
2023-01-22T20:31:52.545Z,-0.73
2023-01-22T20:34:19.650Z,-0.76
2023-01-22T20:36:46.823Z,-0.76
2023-01-22T20:39:15.600Z,-0.81
2023-01-22T20:41:43.372Z,-0.82
2023-01-22T20:44:11.544Z,-0.81
2023-01-22T20:46:40.749Z,-0.80
2023-01-22T20:49:10.666Z,-0.79
2023-01-22T20:51:38.236Z,-0.81
2023-01-22T20:54:05.104Z,-0.81
2023-01-22T20:56:33.363Z,-0.81
2023-01-22T20:59:05.967Z,-0.81
2023-01-22T21:01:33.203Z,-0.78
2023-01-22T21:04:03.879Z,-0.75
2023-01-22T21:06:32.923Z,-0.75
2023-01-22T21:09:00.663Z,-0.76
2023-01-22T21:11:29.494Z,-0.76
2023-01-22T21:13:57.232Z,-0.81
2023-01-22T21:16:31.736Z,-0.87
2023-01-22T21:19:03.138Z,-0.90
2023-01-22T21:21:31.622Z,-0.88
2023-01-22T21:23:58.466Z,-0.87
2023-01-22T21:26:27.675Z,-0.85
2023-01-22T21:29:00.214Z,-0.82
2023-01-22T21:31:27.586Z,-0.80
2023-01-22T21:34:01.935Z,-0.78
2023-01-22T21:36:50.254Z,-0.79
2023-01-22T21:39:18.972Z,-0.80
2023-01-22T21:41:45.807Z,-0.80
2023-01-22T21:44:33.941Z,-0.82
2023-01-22T21:47:00.894Z,-0.83
2023-01-22T21:49:27.838Z,-0.85
2023-01-22T21:51:56.681Z,-0.87
2023-01-22T21:54:26.956Z,-0.87
2023-01-22T21:56:54.751Z,-0.86
2023-01-22T21:59:21.473Z,-0.87
2023-01-22T22:01:49.858Z,-0.87
2023-01-22T22:04:17.422Z,-0.87
2023-01-22T22:06:44.370Z,-0.86
2023-01-22T22:09:19.197Z,-0.88
2023-01-22T22:11:46.013Z,-0.95
2023-01-22T22:14:17.103Z,-0.95
